createdAt,value
2018-11-07T00:00:55.619Z,11.85
2018-11-07T00:01:55.611Z,11.80
2018-11-07T00:02:55.683Z,11.73
2018-11-07T00:03:55.628Z,11.78
2018-11-07T00:04:55.596Z,11.82
2018-11-07T00:05:55.580Z,11.80
2018-11-07T00:06:55.568Z,11.85
2018-11-07T00:07:55.613Z,11.85
2018-11-07T00:08:55.552Z,11.83
2018-11-07T00:09:55.553Z,11.82
2018-11-07T00:10:55.523Z,11.83
2018-11-07T00:11:55.517Z,11.82
2018-11-07T00:12:55.496Z,11.83
2018-11-07T00:13:55.545Z,11.79
2018-11-07T00:14:55.484Z,11.80
2018-11-07T00:15:55.461Z,11.82
2018-11-07T00:16:55.472Z,11.79
2018-11-07T00:17:55.447Z,11.80
2018-11-07T00:18:55.433Z,11.83
2018-11-07T00:19:55.432Z,11.80
2018-11-07T00:20:55.403Z,11.78
2018-11-07T00:21:55.393Z,11.79
2018-11-07T00:22:55.385Z,11.73
2018-11-07T00:23:55.473Z,11.65
2018-11-07T00:24:55.383Z,11.62
2018-11-07T00:25:55.389Z,11.76
2018-11-07T00:26:55.365Z,11.73
2018-11-07T00:27:55.337Z,11.64
2018-11-07T00:28:55.364Z,11.78
2018-11-07T00:29:55.335Z,11.70
2018-11-07T00:30:55.299Z,11.73
2018-11-07T00:31:55.316Z,11.67
2018-11-07T00:32:55.273Z,11.64
2018-11-07T00:33:55.270Z,11.64
2018-11-07T00:34:55.267Z,11.52
2018-11-07T00:35:55.248Z,11.54
2018-11-07T00:36:55.250Z,11.49
2018-11-07T00:37:55.223Z,11.54
2018-11-07T00:38:55.219Z,11.52
2018-11-07T00:39:55.237Z,11.54
2018-11-07T00:40:55.198Z,11.47
2018-11-07T00:41:55.178Z,11.51
2018-11-07T00:42:55.175Z,11.42
2018-11-07T00:43:55.164Z,11.46
2018-11-07T00:44:55.186Z,11.37
2018-11-07T00:45:55.140Z,11.40
2018-11-07T00:46:55.134Z,11.39
2018-11-07T00:47:55.115Z,11.33
2018-11-07T00:48:55.123Z,11.33
2018-11-07T00:49:55.121Z,11.36
2018-11-07T00:50:55.093Z,11.22
2018-11-07T00:51:55.080Z,11.32
2018-11-07T00:52:55.062Z,11.32
2018-11-07T00:53:55.048Z,11.25
2018-11-07T00:54:55.049Z,11.32
2018-11-07T00:55:55.039Z,11.27
2018-11-07T00:56:55.020Z,11.17
2018-11-07T00:57:55.068Z,11.18
2018-11-07T00:58:54.996Z,11.24
2018-11-07T00:59:54.987Z,11.28
2018-11-07T01:00:54.974Z,11.17
2018-11-07T01:01:54.971Z,11.25
2018-11-07T01:02:54.967Z,11.07
2018-11-07T01:03:54.947Z,11.10
2018-11-07T01:04:54.926Z,11.14
2018-11-07T01:05:54.916Z,11.14
2018-11-07T01:06:54.923Z,11.09
2018-11-07T01:07:54.893Z,11.17
2018-11-07T01:08:54.892Z,11.07
2018-11-07T01:09:54.912Z,11.06
2018-11-07T01:10:54.868Z,11.04
2018-11-07T01:11:54.871Z,11.04
2018-11-07T01:12:54.860Z,11.15
2018-11-07T01:13:54.842Z,11.11
2018-11-07T01:14:54.819Z,11.06
2018-11-07T01:15:54.814Z,11.04
2018-11-07T01:16:54.841Z,11.07
2018-11-07T01:17:54.792Z,11.02
2018-11-07T01:18:54.776Z,10.94
2018-11-07T01:19:54.770Z,10.94
2018-11-07T01:20:54.759Z,10.99
2018-11-07T01:21:54.769Z,10.94
2018-11-07T01:22:54.737Z,10.88
2018-11-07T01:23:54.729Z,10.84
2018-11-07T01:24:54.719Z,10.86
2018-11-07T01:25:54.707Z,10.89
2018-11-07T01:26:54.694Z,10.88
2018-11-07T01:27:54.688Z,10.89
2018-11-07T01:28:54.673Z,10.94
2018-11-07T01:29:54.665Z,10.84
2018-11-07T01:30:54.650Z,10.89
2018-11-07T01:31:54.641Z,10.78
2018-11-07T01:32:54.634Z,10.78
2018-11-07T01:33:54.613Z,10.71
2018-11-07T01:34:54.608Z,10.79
2018-11-07T01:35:54.613Z,10.81
2018-11-07T01:36:54.597Z,10.67
2018-11-07T01:37:54.581Z,10.73
2018-11-07T01:38:54.563Z,10.78
2018-11-07T01:39:54.547Z,10.67
2018-11-07T01:40:54.543Z,10.67
2018-11-07T01:41:54.621Z,10.76
2018-11-07T01:42:54.530Z,10.74
2018-11-07T01:43:54.525Z,10.74
2018-11-07T01:44:54.491Z,10.66
2018-11-07T01:45:54.483Z,10.70
2018-11-07T01:46:54.473Z,10.68
2018-11-07T01:47:54.473Z,10.71
2018-11-07T01:48:54.463Z,10.70
2018-11-07T01:49:54.447Z,10.67
2018-11-07T01:50:54.440Z,10.70
2018-11-07T01:51:54.421Z,10.73
2018-11-07T01:52:54.425Z,10.70
2018-11-07T01:53:54.399Z,10.68
2018-11-07T01:54:54.390Z,10.73
2018-11-07T01:55:54.383Z,10.68
2018-11-07T01:56:54.368Z,10.71
2018-11-07T01:57:54.372Z,10.70
2018-11-07T01:58:54.363Z,10.67
2018-11-07T01:59:54.332Z,10.68
2018-11-07T02:00:54.334Z,10.63
2018-11-07T02:01:54.436Z,10.66
2018-11-07T02:02:54.314Z,10.71
2018-11-07T02:03:54.310Z,10.71
2018-11-07T02:04:54.288Z,10.73
2018-11-07T02:05:54.266Z,10.74
2018-11-07T02:06:54.259Z,10.73
2018-11-07T02:07:54.254Z,10.71
2018-11-07T02:08:54.235Z,10.74
2018-11-07T02:09:54.240Z,10.74
2018-11-07T02:10:54.221Z,10.70
2018-11-07T02:11:54.216Z,10.71
2018-11-07T02:12:54.210Z,10.71
2018-11-07T02:13:54.185Z,10.73
2018-11-07T02:14:54.173Z,10.76
2018-11-07T02:15:54.179Z,10.79
2018-11-07T02:16:54.150Z,10.71
2018-11-07T02:17:54.144Z,10.78
2018-11-07T02:18:54.133Z,10.66
2018-11-07T02:19:54.180Z,10.64
2018-11-07T02:20:54.126Z,10.68
2018-11-07T02:21:54.128Z,10.79
2018-11-07T02:22:54.091Z,10.66
2018-11-07T02:23:54.081Z,10.68
2018-11-07T02:24:54.077Z,10.68
2018-11-07T02:25:54.058Z,10.63
2018-11-07T02:26:54.054Z,10.67
2018-11-07T02:27:54.039Z,10.70
2018-11-07T02:28:54.037Z,10.67
2018-11-07T02:29:54.012Z,10.64
2018-11-07T02:30:54.002Z,10.63
2018-11-07T02:31:53.998Z,10.67
2018-11-07T02:32:53.983Z,10.63
2018-11-07T02:33:53.972Z,10.67
2018-11-07T02:34:53.966Z,10.63
2018-11-07T02:35:53.989Z,10.59
2018-11-07T02:36:54.032Z,10.68
2018-11-07T02:37:53.925Z,10.64
2018-11-07T02:38:53.917Z,10.71
2018-11-07T02:39:53.917Z,10.67
2018-11-07T02:40:53.895Z,10.61
2018-11-07T02:41:53.977Z,10.66
2018-11-07T02:42:53.880Z,10.63
2018-11-07T02:43:53.865Z,10.70
2018-11-07T02:44:53.858Z,10.70
2018-11-07T02:45:53.840Z,10.66
2018-11-07T02:46:53.866Z,10.71
2018-11-07T02:47:53.844Z,10.52
2018-11-07T02:48:53.805Z,10.55
2018-11-07T02:49:53.796Z,10.63
2018-11-07T02:50:53.784Z,10.61
2018-11-07T02:51:53.778Z,10.61
2018-11-07T02:52:53.770Z,10.63
2018-11-07T02:53:53.771Z,10.56
2018-11-07T02:54:53.795Z,10.56
2018-11-07T02:55:53.729Z,10.59
2018-11-07T02:56:53.734Z,10.55
2018-11-07T02:57:53.736Z,10.59
2018-11-07T02:58:53.709Z,10.55
2018-11-07T02:59:53.701Z,10.48
2018-11-07T03:00:53.675Z,10.55
2018-11-07T03:01:53.667Z,10.59
2018-11-07T03:02:53.672Z,10.55
2018-11-07T03:03:53.646Z,10.42
2018-11-07T03:04:53.641Z,10.47
2018-11-07T03:05:53.634Z,10.47
2018-11-07T03:06:53.617Z,10.51
2018-11-07T03:07:53.641Z,10.45
2018-11-07T03:08:53.587Z,10.41
2018-11-07T03:09:53.648Z,10.45
2018-11-07T03:10:53.585Z,10.33
2018-11-07T03:11:53.582Z,10.40
2018-11-07T03:12:53.564Z,10.33
2018-11-07T03:13:53.602Z,10.33
2018-11-07T03:14:53.552Z,10.40
2018-11-07T03:15:53.542Z,10.42
2018-11-07T03:16:53.578Z,10.41
2018-11-07T03:17:53.594Z,10.33
2018-11-07T03:18:53.489Z,10.34
2018-11-07T03:19:53.484Z,10.34
2018-11-07T03:20:53.463Z,10.34
2018-11-07T03:21:53.450Z,10.40
2018-11-07T03:22:53.462Z,10.32
2018-11-07T03:23:53.429Z,10.36
2018-11-07T03:24:53.421Z,10.34
2018-11-07T03:25:53.434Z,10.36
2018-11-07T03:26:53.412Z,10.38
2018-11-07T03:27:53.434Z,10.30
2018-11-07T03:28:53.402Z,10.26
2018-11-07T03:29:53.404Z,10.30
2018-11-07T03:30:53.385Z,10.26
2018-11-07T03:31:53.351Z,10.26
2018-11-07T03:32:53.388Z,10.26
2018-11-07T03:33:53.367Z,10.26
2018-11-07T03:34:53.346Z,10.17
2018-11-07T03:35:53.377Z,10.14
2018-11-07T03:36:53.294Z,10.23
2018-11-07T03:37:53.285Z,10.18
2018-11-07T03:38:53.365Z,10.22
2018-11-07T03:39:53.283Z,10.11
2018-11-07T03:40:53.272Z,10.20
2018-11-07T03:41:53.233Z,10.17
2018-11-07T03:42:53.233Z,10.20
2018-11-07T03:43:53.217Z,10.23
2018-11-07T03:44:53.222Z,10.22
2018-11-07T03:45:53.195Z,10.22
2018-11-07T03:46:53.185Z,10.23
2018-11-07T03:47:53.189Z,10.20
2018-11-07T03:48:53.164Z,10.22
2018-11-07T03:49:53.170Z,10.25
2018-11-07T03:50:53.148Z,10.25
2018-11-07T03:51:53.145Z,10.22
2018-11-07T03:52:53.126Z,10.17
2018-11-07T03:53:53.183Z,10.17
2018-11-07T03:54:53.112Z,10.18
2018-11-07T03:55:53.087Z,10.11
2018-11-07T03:56:53.112Z,10.22
2018-11-07T03:57:53.083Z,10.18
2018-11-07T03:58:53.117Z,10.23
2018-11-07T03:59:53.044Z,10.14
2018-11-07T04:00:53.058Z,10.15
2018-11-07T04:01:53.046Z,10.22
2018-11-07T04:02:53.024Z,10.18
2018-11-07T04:03:53.030Z,10.20
2018-11-07T04:04:52.999Z,10.18
2018-11-07T04:05:52.979Z,10.17
2018-11-07T04:06:52.982Z,10.20
2018-11-07T04:07:53.035Z,10.15
2018-11-07T04:08:52.952Z,10.17
2018-11-07T04:09:52.950Z,10.25
2018-11-07T04:10:52.971Z,10.23
2018-11-07T04:11:52.917Z,10.20
2018-11-07T04:12:52.912Z,10.25
2018-11-07T04:13:52.901Z,10.23
2018-11-07T04:14:52.899Z,10.25
2018-11-07T04:15:52.915Z,10.26
2018-11-07T04:16:52.911Z,10.23
2018-11-07T04:17:52.859Z,10.20
2018-11-07T04:18:52.846Z,10.20
2018-11-07T04:19:52.881Z,10.18
2018-11-07T04:20:52.825Z,10.22
2018-11-07T04:21:52.826Z,10.22
2018-11-07T04:22:52.821Z,10.22
2018-11-07T04:23:52.789Z,10.20
2018-11-07T04:24:52.776Z,10.17
2018-11-07T04:25:52.767Z,10.23
2018-11-07T04:26:52.769Z,10.20
2018-11-07T04:27:52.808Z,10.15
2018-11-07T04:28:52.745Z,10.26
2018-11-07T04:29:52.756Z,10.05
2018-11-07T04:30:52.710Z,10.12
2018-11-07T04:31:52.808Z,10.20
2018-11-07T04:32:52.724Z,10.18
2018-11-07T04:33:52.698Z,10.11
2018-11-07T04:34:52.673Z,10.09
2018-11-07T04:35:52.665Z,10.11
2018-11-07T04:36:52.722Z,10.08
2018-11-07T04:37:52.644Z,10.12
2018-11-07T04:38:52.699Z,10.11
2018-11-07T04:39:52.620Z,10.08
2018-11-07T04:40:52.631Z,10.04
2018-11-07T04:41:52.619Z,9.94
2018-11-07T04:42:52.590Z,9.94
2018-11-07T04:43:52.597Z,9.99
2018-11-07T04:44:52.574Z,9.94
2018-11-07T04:45:52.554Z,10.01
2018-11-07T04:46:52.546Z,9.96
2018-11-07T04:47:52.542Z,9.99
2018-11-07T04:48:52.532Z,9.93
2018-11-07T04:49:52.563Z,10.07
2018-11-07T04:50:52.498Z,9.97
2018-11-07T04:51:52.486Z,9.97
2018-11-07T04:52:52.481Z,10.07
2018-11-07T04:53:52.492Z,10.08
2018-11-07T04:54:52.462Z,10.04
2018-11-07T04:55:52.451Z,10.02
2018-11-07T04:56:52.434Z,10.17
2018-11-07T04:57:52.418Z,9.96
2018-11-07T04:58:52.430Z,10.07
2018-11-07T04:59:52.469Z,10.02
2018-11-07T05:00:52.394Z,10.11
2018-11-07T05:01:52.388Z,10.02
2018-11-07T05:02:52.371Z,10.04
2018-11-07T05:03:52.357Z,9.96
2018-11-07T05:04:52.375Z,9.93
2018-11-07T05:05:52.347Z,10.05
2018-11-07T05:06:52.350Z,9.94
2018-11-07T05:07:52.348Z,9.93
2018-11-07T05:08:52.317Z,9.96
2018-11-07T05:09:52.291Z,9.97
2018-11-07T05:10:52.302Z,9.91
2018-11-07T05:11:52.277Z,9.91
2018-11-07T05:12:52.284Z,10.04
2018-11-07T05:13:52.258Z,9.99
2018-11-07T05:14:52.245Z,10.09
2018-11-07T05:15:52.234Z,9.99
2018-11-07T05:16:52.233Z,9.94
2018-11-07T05:17:52.202Z,9.94
2018-11-07T05:18:52.267Z,9.96
2018-11-07T05:19:52.225Z,10.04
2018-11-07T05:20:52.174Z,10.05
2018-11-07T05:21:52.173Z,9.99
2018-11-07T05:22:52.182Z,9.96
2018-11-07T05:23:52.167Z,9.99
2018-11-07T05:24:52.134Z,9.97
2018-11-07T05:25:52.132Z,10.04
2018-11-07T05:26:52.120Z,9.99
2018-11-07T05:27:52.103Z,9.97
2018-11-07T05:28:52.091Z,9.94
2018-11-07T05:29:52.097Z,9.87
2018-11-07T05:30:52.063Z,9.83
2018-11-07T05:31:52.075Z,9.78
2018-11-07T05:32:52.049Z,9.79
2018-11-07T05:33:52.074Z,9.72
2018-11-07T05:34:52.024Z,9.71
2018-11-07T05:35:52.049Z,9.75
2018-11-07T05:36:52.024Z,9.74
2018-11-07T05:37:51.996Z,9.75
2018-11-07T05:38:51.986Z,9.72
2018-11-07T05:39:51.984Z,9.74
2018-11-07T05:40:51.961Z,9.72
2018-11-07T05:41:51.947Z,9.68
2018-11-07T05:42:51.941Z,9.72
2018-11-07T05:43:51.939Z,9.64
2018-11-07T05:44:51.917Z,9.66
2018-11-07T05:45:51.924Z,9.68
2018-11-07T05:46:51.899Z,9.74
2018-11-07T05:47:51.893Z,9.69
2018-11-07T05:48:51.928Z,9.66
2018-11-07T05:49:51.870Z,9.57
2018-11-07T05:50:51.856Z,9.66
2018-11-07T05:51:51.841Z,9.60
2018-11-07T05:52:51.830Z,9.61
2018-11-07T05:53:51.826Z,9.60
2018-11-07T05:54:51.803Z,9.56
2018-11-07T05:55:51.801Z,9.50
2018-11-07T05:56:51.799Z,9.50
2018-11-07T05:57:51.784Z,9.51
2018-11-07T05:58:51.836Z,9.58
2018-11-07T05:59:51.755Z,9.58
2018-11-07T06:00:51.783Z,9.56
2018-11-07T06:01:51.729Z,9.46
2018-11-07T06:02:51.719Z,9.48
2018-11-07T06:03:51.731Z,9.50
2018-11-07T06:04:51.701Z,9.53
2018-11-07T06:05:51.770Z,9.46
2018-11-07T06:06:51.681Z,9.57
2018-11-07T06:07:51.670Z,9.50
2018-11-07T06:08:51.695Z,9.47
2018-11-07T06:09:51.648Z,9.42
2018-11-07T06:10:51.657Z,9.48
2018-11-07T06:11:51.651Z,9.40
2018-11-07T06:12:51.610Z,9.39
2018-11-07T06:13:51.614Z,9.51
2018-11-07T06:14:51.585Z,9.54
2018-11-07T06:15:51.581Z,9.60
2018-11-07T06:16:51.598Z,9.50
2018-11-07T06:17:51.577Z,9.54
2018-11-07T06:18:51.556Z,9.57
2018-11-07T06:19:51.537Z,9.69
2018-11-07T06:20:51.523Z,9.68
2018-11-07T06:21:51.523Z,9.78
2018-11-07T06:22:51.516Z,9.75
2018-11-07T06:23:51.508Z,9.81
2018-11-07T06:24:51.570Z,9.75
2018-11-07T06:25:51.468Z,9.76
2018-11-07T06:26:51.514Z,9.71
2018-11-07T06:27:51.494Z,9.74
2018-11-07T06:28:51.445Z,9.72
2018-11-07T06:29:51.438Z,9.72
2018-11-07T06:30:51.448Z,9.71
2018-11-07T06:31:51.467Z,9.64
2018-11-07T06:32:51.396Z,9.69
2018-11-07T06:33:51.400Z,9.72
2018-11-07T06:34:51.381Z,9.71
2018-11-07T06:35:51.374Z,9.86
2018-11-07T06:36:51.356Z,9.96
2018-11-07T06:37:51.358Z,9.93
2018-11-07T06:38:51.332Z,10.01
2018-11-07T06:39:51.317Z,9.91
2018-11-07T06:40:51.337Z,10.01
2018-11-07T06:41:51.307Z,10.01
2018-11-07T06:42:51.291Z,9.97
2018-11-07T06:43:51.288Z,10.05
2018-11-07T06:44:51.265Z,10.05
2018-11-07T06:45:51.265Z,9.94
2018-11-07T06:46:51.239Z,9.91
2018-11-07T06:47:51.247Z,9.96
2018-11-07T06:48:51.224Z,9.91
2018-11-07T06:49:51.244Z,10.02
2018-11-07T06:50:51.205Z,10.05
2018-11-07T06:51:51.192Z,9.94
2018-11-07T06:52:51.179Z,9.87
2018-11-07T06:53:51.195Z,9.87
2018-11-07T06:54:51.173Z,9.93
2018-11-07T06:55:51.178Z,9.87
2018-11-07T06:56:51.147Z,9.96
2018-11-07T06:57:51.138Z,9.96
2018-11-07T06:58:51.124Z,9.93
2018-11-07T06:59:51.101Z,9.91
2018-11-07T07:00:51.108Z,9.90
2018-11-07T07:01:51.085Z,9.90
2018-11-07T07:02:51.087Z,9.87
2018-11-07T07:03:51.134Z,9.90
2018-11-07T07:04:51.047Z,9.93
2018-11-07T07:05:51.036Z,9.96
2018-11-07T07:06:51.021Z,9.93
2018-11-07T07:07:51.030Z,10.01
2018-11-07T07:08:51.020Z,10.02
2018-11-07T07:09:51.000Z,9.91
2018-11-07T07:10:50.985Z,9.99
2018-11-07T07:11:50.972Z,9.96
2018-11-07T07:12:50.962Z,9.93
2018-11-07T07:13:50.958Z,10.04
2018-11-07T07:14:50.956Z,10.01
2018-11-07T07:15:50.937Z,9.97
2018-11-07T07:16:50.932Z,10.04
2018-11-07T07:17:50.929Z,10.05
2018-11-07T07:18:50.893Z,10.15
2018-11-07T07:19:50.897Z,10.26
2018-11-07T07:20:50.878Z,10.38
2018-11-07T07:21:50.871Z,10.41
2018-11-07T07:22:50.869Z,10.56
2018-11-07T07:23:50.846Z,10.71
2018-11-07T07:24:50.839Z,11.11
2018-11-07T07:25:50.837Z,11.47
2018-11-07T07:26:50.839Z,11.86
2018-11-07T07:27:50.802Z,11.95
2018-11-07T07:28:50.787Z,12.14
2018-11-07T07:29:50.847Z,12.09
2018-11-07T07:30:50.772Z,12.21
2018-11-07T07:31:50.772Z,12.53
2018-11-07T07:32:50.768Z,12.75
2018-11-07T07:33:50.782Z,13.00
2018-11-07T07:34:50.731Z,13.48
2018-11-07T07:35:50.718Z,13.48
2018-11-07T07:36:50.747Z,13.84
2018-11-07T07:37:50.720Z,14.06
2018-11-07T07:38:50.680Z,13.99
2018-11-07T07:39:50.684Z,13.71
2018-11-07T07:40:50.664Z,14.04
2018-11-07T07:41:50.655Z,14.47
2018-11-07T07:42:50.648Z,14.94
2018-11-07T07:43:50.639Z,15.38
2018-11-07T07:44:50.621Z,15.80
2018-11-07T07:45:50.608Z,16.04
2018-11-07T07:46:50.615Z,16.53
2018-11-07T07:47:50.614Z,17.08
2018-11-07T07:48:50.576Z,17.54
2018-11-07T07:49:50.619Z,17.81
2018-11-07T07:50:50.550Z,18.08
2018-11-07T07:51:50.539Z,18.05
2018-11-07T07:52:50.610Z,18.27
2018-11-07T07:53:50.533Z,18.51
2018-11-07T07:54:50.515Z,18.75
2018-11-07T07:55:50.506Z,18.88
2018-11-07T07:56:50.484Z,18.90
2018-11-07T07:57:50.476Z,19.13
2018-11-07T07:58:50.486Z,18.67
2018-11-07T07:59:50.460Z,18.85
2018-11-07T08:00:50.446Z,18.54
2018-11-07T08:01:50.461Z,17.95
2018-11-07T08:02:50.434Z,17.74
2018-11-07T08:03:50.763Z,17.64
2018-11-07T08:04:50.420Z,17.63
2018-11-07T08:05:50.397Z,17.40
2018-11-07T08:06:50.442Z,17.25
2018-11-07T08:07:50.381Z,17.04
2018-11-07T08:08:50.408Z,16.66
2018-11-07T08:09:50.368Z,16.33
2018-11-07T08:10:50.347Z,16.17
2018-11-07T08:11:50.340Z,15.87
2018-11-07T08:12:50.340Z,15.38
2018-11-07T08:13:50.345Z,15.23
2018-11-07T08:14:50.319Z,15.10
2018-11-07T08:15:50.279Z,14.84
2018-11-07T08:16:50.276Z,14.73
2018-11-07T08:17:50.265Z,14.81
2018-11-07T08:18:50.253Z,14.96
2018-11-07T08:19:50.245Z,15.10
2018-11-07T08:20:50.300Z,15.31
2018-11-07T08:21:50.225Z,15.60
2018-11-07T08:22:50.250Z,15.82
2018-11-07T08:23:50.193Z,16.00
2018-11-07T08:24:50.209Z,16.48
2018-11-07T08:25:50.360Z,16.73
2018-11-07T08:26:50.183Z,16.91
2018-11-07T08:27:50.174Z,17.23
2018-11-07T08:28:50.197Z,17.64
2018-11-07T08:29:50.155Z,17.58
2018-11-07T08:30:50.229Z,17.74
2018-11-07T08:31:50.121Z,17.38
2018-11-07T08:32:50.110Z,17.63
2018-11-07T08:33:50.095Z,17.74
2018-11-07T08:34:50.095Z,17.52
2018-11-07T08:35:50.090Z,17.75
2018-11-07T08:36:50.068Z,18.12
2018-11-07T08:37:50.063Z,18.17
2018-11-07T08:38:50.051Z,18.11
2018-11-07T08:39:50.052Z,18.10
2018-11-07T08:40:50.011Z,18.05
2018-11-07T08:41:50.014Z,17.96
2018-11-07T08:42:50.063Z,17.96
2018-11-07T08:43:49.979Z,17.90
2018-11-07T08:44:49.973Z,17.75
2018-11-07T08:45:49.975Z,17.41
2018-11-07T08:46:49.966Z,17.04
2018-11-07T08:47:49.938Z,17.06
2018-11-07T08:48:49.945Z,16.70
2018-11-07T08:49:49.919Z,16.53
2018-11-07T08:50:49.909Z,16.89
2018-11-07T08:51:49.916Z,17.12
2018-11-07T08:52:49.900Z,17.23
2018-11-07T08:53:49.940Z,17.34
2018-11-07T08:54:49.874Z,17.28
2018-11-07T08:55:49.851Z,17.34
2018-11-07T08:56:49.856Z,17.22
2018-11-07T08:57:49.835Z,17.30
2018-11-07T08:58:49.846Z,17.12
2018-11-07T08:59:49.845Z,16.94
2018-11-07T09:00:49.806Z,16.98
2018-11-07T09:01:49.791Z,16.88
2018-11-07T09:02:49.795Z,16.70
2018-11-07T09:03:49.774Z,16.83
2018-11-07T09:04:49.766Z,16.82
2018-11-07T09:05:49.766Z,16.85
2018-11-07T09:06:49.740Z,16.81
2018-11-07T09:07:49.744Z,16.71
2018-11-07T09:08:49.728Z,16.83
2018-11-07T09:09:49.710Z,16.75
2018-11-07T09:10:49.701Z,16.57
2018-11-07T09:11:49.706Z,16.60
2018-11-07T09:12:49.669Z,16.64
2018-11-07T09:13:49.674Z,16.52
2018-11-07T09:14:49.664Z,16.27
2018-11-07T09:15:49.636Z,15.96
2018-11-07T09:16:49.696Z,15.78
2018-11-07T09:17:49.640Z,15.68
2018-11-07T09:18:49.677Z,15.50
2018-11-07T09:19:49.629Z,15.31
2018-11-07T09:20:49.722Z,15.17
2018-11-07T09:21:49.648Z,15.19
2018-11-07T09:22:49.569Z,15.23
2018-11-07T09:23:49.566Z,14.95
2018-11-07T09:24:49.555Z,14.84
2018-11-07T09:25:49.538Z,14.68
2018-11-07T09:26:49.521Z,14.73
2018-11-07T09:27:49.507Z,14.92
2018-11-07T09:28:49.513Z,15.06
2018-11-07T09:29:49.512Z,15.13
2018-11-07T09:30:49.481Z,15.28
2018-11-07T09:31:49.470Z,15.25
2018-11-07T09:32:49.451Z,15.25
2018-11-07T09:33:49.443Z,15.20
2018-11-07T09:34:49.470Z,15.20
2018-11-07T09:35:49.440Z,14.99
2018-11-07T09:36:49.409Z,14.98
2018-11-07T09:37:49.402Z,14.96
2018-11-07T09:38:49.390Z,14.91
2018-11-07T09:39:49.622Z,14.91
2018-11-07T09:40:49.372Z,15.03
2018-11-07T09:41:49.361Z,15.09
2018-11-07T09:42:49.354Z,15.23
2018-11-07T09:43:49.341Z,15.17
2018-11-07T09:44:49.360Z,15.11
2018-11-07T09:45:49.313Z,15.17
2018-11-07T09:46:49.305Z,15.14
2018-11-07T09:47:49.290Z,15.23
2018-11-07T09:48:49.291Z,15.25
2018-11-07T09:49:49.379Z,15.25
2018-11-07T09:50:49.280Z,15.34
2018-11-07T09:51:49.265Z,15.35
2018-11-07T09:52:49.242Z,15.50
2018-11-07T09:53:49.293Z,15.54
2018-11-07T09:54:49.220Z,15.64
2018-11-07T09:55:49.211Z,15.75
2018-11-07T09:56:49.206Z,15.72
2018-11-07T09:57:49.236Z,15.65
2018-11-07T09:58:49.216Z,15.65
2018-11-07T09:59:49.169Z,15.80
2018-11-07T10:00:49.162Z,15.80
2018-11-07T10:01:49.215Z,15.94
2018-11-07T10:02:49.134Z,15.92
2018-11-07T10:03:49.179Z,15.89
2018-11-07T10:04:49.134Z,15.90
2018-11-07T10:05:49.123Z,15.96
2018-11-07T10:06:49.093Z,15.94
2018-11-07T10:07:49.129Z,15.94
2018-11-07T10:08:49.067Z,15.94
2018-11-07T10:09:49.063Z,15.90
2018-11-07T10:10:49.062Z,15.97
2018-11-07T10:11:49.041Z,15.93
2018-11-07T10:12:49.043Z,16.02
2018-11-07T10:13:49.039Z,16.20
2018-11-07T10:14:49.038Z,16.25
2018-11-07T10:15:48.994Z,16.35
2018-11-07T10:16:48.990Z,16.52
2018-11-07T10:17:49.056Z,16.50
2018-11-07T10:18:48.958Z,16.48
2018-11-07T10:19:48.943Z,16.60
2018-11-07T10:20:48.951Z,16.53
2018-11-07T10:21:48.927Z,16.50
2018-11-07T10:22:48.917Z,16.60
2018-11-07T10:23:48.921Z,16.57
2018-11-07T10:24:48.900Z,16.45
2018-11-07T10:25:48.911Z,16.20
2018-11-07T10:26:48.923Z,16.27
2018-11-07T10:27:49.066Z,16.11
2018-11-07T10:28:49.086Z,16.17
2018-11-07T10:29:49.213Z,16.27
2018-11-07T10:30:48.847Z,16.28
2018-11-07T10:31:48.871Z,16.31
2018-11-07T10:32:48.866Z,16.34
2018-11-07T10:33:48.805Z,16.46
2018-11-07T10:34:48.786Z,16.52
2018-11-07T10:35:48.780Z,16.52
2018-11-07T10:36:48.758Z,16.31
2018-11-07T10:37:48.832Z,16.30
2018-11-07T10:38:48.772Z,16.39
2018-11-07T10:39:48.800Z,16.23
2018-11-07T10:40:48.720Z,16.11
2018-11-07T10:41:48.716Z,16.07
2018-11-07T10:42:48.695Z,16.08
2018-11-07T10:43:48.821Z,16.04
2018-11-07T10:44:48.686Z,16.00
2018-11-07T10:45:48.681Z,16.04
2018-11-07T10:46:48.654Z,16.00
2018-11-07T10:47:48.652Z,16.00
2018-11-07T10:48:48.697Z,15.96
2018-11-07T10:49:48.619Z,15.94
2018-11-07T10:50:48.615Z,16.00
2018-11-07T10:51:48.659Z,15.94
2018-11-07T10:52:48.600Z,16.09
2018-11-07T10:53:48.608Z,16.05
2018-11-07T10:54:48.848Z,16.02
2018-11-07T10:55:48.557Z,16.15
2018-11-07T10:56:48.591Z,16.09
2018-11-07T10:57:48.546Z,16.30
2018-11-07T10:58:48.527Z,16.11
2018-11-07T10:59:48.533Z,16.07
2018-11-07T11:00:48.498Z,16.04
2018-11-07T11:01:48.490Z,16.08
2018-11-07T11:02:48.485Z,16.01
2018-11-07T11:03:48.467Z,16.07
2018-11-07T11:04:48.483Z,16.07
2018-11-07T11:05:48.456Z,15.97
2018-11-07T11:06:48.450Z,16.07
2018-11-07T11:07:48.433Z,16.00
2018-11-07T11:08:48.425Z,15.90
2018-11-07T11:09:48.427Z,16.04
2018-11-07T11:10:48.405Z,15.96
2018-11-07T11:11:48.391Z,16.07
2018-11-07T11:12:48.394Z,16.04
2018-11-07T11:13:48.362Z,16.02
2018-11-07T11:14:48.380Z,16.02
2018-11-07T11:15:48.341Z,16.09
2018-11-07T11:16:48.388Z,16.17
2018-11-07T11:17:48.364Z,16.15
2018-11-07T11:18:48.349Z,16.05
2018-11-07T11:19:48.342Z,15.94
2018-11-07T11:20:48.335Z,15.97
2018-11-07T11:21:48.321Z,15.92
2018-11-07T11:22:48.280Z,15.90
2018-11-07T11:23:48.269Z,15.94
2018-11-07T11:24:48.255Z,16.00
2018-11-07T11:25:48.291Z,15.84
2018-11-07T11:26:48.231Z,15.89
2018-11-07T11:27:48.213Z,15.86
2018-11-07T11:28:48.206Z,15.89
2018-11-07T11:29:48.239Z,15.86
2018-11-07T11:30:48.213Z,15.82
2018-11-07T11:31:48.169Z,15.80
2018-11-07T11:32:48.153Z,15.78
2018-11-07T11:33:48.257Z,15.75
2018-11-07T11:34:48.191Z,15.76
2018-11-07T11:35:48.117Z,15.84
2018-11-07T11:36:48.125Z,15.78
2018-11-07T11:37:48.099Z,15.84
2018-11-07T11:38:48.098Z,15.84
2018-11-07T11:39:48.103Z,15.82
2018-11-07T11:40:48.099Z,15.94
2018-11-07T11:41:48.068Z,15.92
2018-11-07T11:42:48.047Z,15.94
2018-11-07T11:43:48.046Z,15.94
2018-11-07T11:44:48.023Z,16.05
2018-11-07T11:45:48.007Z,16.11
2018-11-07T11:46:47.999Z,16.15
2018-11-07T11:47:47.993Z,16.17
2018-11-07T11:48:47.982Z,16.24
2018-11-07T11:49:47.967Z,16.24
2018-11-07T11:50:47.958Z,16.30
2018-11-07T11:51:47.948Z,16.39
2018-11-07T11:52:47.958Z,16.48
2018-11-07T11:53:47.929Z,16.43
2018-11-07T11:54:47.927Z,16.52
2018-11-07T11:55:47.899Z,16.52
2018-11-07T11:56:47.892Z,16.57
2018-11-07T11:57:47.887Z,16.56
2018-11-07T11:58:47.941Z,16.46
2018-11-07T11:59:48.077Z,16.53
2018-11-07T12:00:47.854Z,16.53
2018-11-07T12:01:47.851Z,16.48
2018-11-07T12:02:47.854Z,16.45
2018-11-07T12:03:47.873Z,16.34
2018-11-07T12:04:47.845Z,16.30
2018-11-07T12:05:47.817Z,16.28
2018-11-07T12:06:47.781Z,16.28
2018-11-07T12:07:47.800Z,16.31
2018-11-07T12:08:47.802Z,16.27
2018-11-07T12:09:47.765Z,16.23
2018-11-07T12:10:47.747Z,16.15
2018-11-07T12:11:47.782Z,16.17
2018-11-07T12:12:47.728Z,16.07
2018-11-07T12:13:47.721Z,16.09
2018-11-07T12:14:47.756Z,16.05
2018-11-07T12:15:47.715Z,15.97
2018-11-07T12:16:47.719Z,15.96
2018-11-07T12:17:47.666Z,15.97
2018-11-07T12:18:47.664Z,16.04
2018-11-07T12:19:47.658Z,16.04
2018-11-07T12:20:47.634Z,15.90
2018-11-07T12:21:47.630Z,15.92
2018-11-07T12:22:47.618Z,15.97
2018-11-07T12:23:47.619Z,15.94
2018-11-07T12:24:47.598Z,16.01
2018-11-07T12:25:47.594Z,15.90
2018-11-07T12:26:47.618Z,15.93
2018-11-07T12:27:47.555Z,15.96
2018-11-07T12:28:47.549Z,15.94
2018-11-07T12:29:47.550Z,16.07
2018-11-07T12:30:47.519Z,16.04
2018-11-07T12:31:47.514Z,15.92
2018-11-07T12:32:47.504Z,15.92
2018-11-07T12:33:47.497Z,15.94
2018-11-07T12:34:47.497Z,15.89
2018-11-07T12:35:47.552Z,16.00
2018-11-07T12:36:47.470Z,15.92
2018-11-07T12:37:47.445Z,15.92
2018-11-07T12:38:47.457Z,15.92
2018-11-07T12:39:47.434Z,15.87
2018-11-07T12:40:47.415Z,15.96
2018-11-07T12:41:47.416Z,15.93
2018-11-07T12:42:47.474Z,15.92
2018-11-07T12:43:47.397Z,15.89
2018-11-07T12:44:47.371Z,15.92
2018-11-07T12:45:47.354Z,15.92
2018-11-07T12:46:47.368Z,15.94
2018-11-07T12:47:47.342Z,16.04
2018-11-07T12:48:47.365Z,15.96
2018-11-07T12:49:47.352Z,15.92
2018-11-07T12:50:47.312Z,16.00
2018-11-07T12:51:47.292Z,16.05
2018-11-07T12:52:47.283Z,16.02
2018-11-07T12:53:47.274Z,16.08
2018-11-07T12:54:47.280Z,16.09
2018-11-07T12:55:47.270Z,16.04
2018-11-07T12:56:47.237Z,16.15